createdAt,value
2024-05-09T00:04:21.504Z,1308
2024-05-09T00:09:39.814Z,1321
2024-05-09T00:14:58.126Z,1330
2024-05-09T00:20:20.307Z,1339
2024-05-09T00:25:58.378Z,1353
2024-05-09T00:31:16.398Z,1374
2024-05-09T00:36:34.527Z,1376
2024-05-09T00:41:52.866Z,1380
2024-05-09T00:47:11.160Z,1375
2024-05-09T00:52:29.830Z,1396
2024-05-09T00:57:48.294Z,1394
2024-05-09T01:03:06.946Z,1389
2024-05-09T01:08:28.614Z,1370
2024-05-09T01:13:47.355Z,1365
2024-05-09T01:19:05.651Z,1360
2024-05-09T01:24:24.745Z,1361
2024-05-09T01:29:42.890Z,1370
2024-05-09T01:35:01.462Z,1376
2024-05-09T01:40:24.756Z,1363
2024-05-09T01:45:58.106Z,1358
2024-05-09T01:51:16.377Z,1352
2024-05-09T01:56:34.817Z,1345
2024-05-09T02:01:55.254Z,1350
2024-05-09T02:07:16.128Z,1342
2024-05-09T02:12:34.702Z,1352
2024-05-09T02:17:53.572Z,1361
2024-05-09T02:23:15.347Z,1371
2024-05-09T02:28:33.756Z,1391
2024-05-09T02:33:52.281Z,1405
2024-05-09T02:39:11.424Z,1410
2024-05-09T02:44:29.705Z,1400
2024-05-09T02:49:48.669Z,1404
2024-05-09T02:55:07.069Z,1411
2024-05-09T03:00:29.517Z,1419
2024-05-09T03:06:01.003Z,1438
2024-05-09T03:11:19.174Z,1445
2024-05-09T03:16:37.578Z,1417
2024-05-09T03:21:55.987Z,1399
2024-05-09T03:27:13.967Z,1391
2024-05-09T03:32:32.195Z,1393
2024-05-09T03:37:50.690Z,1385
2024-05-09T03:43:08.897Z,1392
2024-05-09T03:48:27.553Z,1357
2024-05-09T03:53:46.415Z,1337
2024-05-09T03:59:04.690Z,1320
2024-05-09T04:04:23.207Z,1301
2024-05-09T04:09:41.567Z,1294
2024-05-09T04:14:59.674Z,1283
2024-05-09T04:20:21.303Z,1271
2024-05-09T04:25:58.881Z,1281
2024-05-09T04:31:17.026Z,1286
2024-05-09T04:36:35.341Z,1281
2024-05-09T04:41:53.672Z,1269
2024-05-09T04:47:12.045Z,956
2024-05-09T04:52:30.770Z,890
2024-05-09T04:57:48.940Z,834
2024-05-09T05:03:07.968Z,860
2024-05-09T05:08:33.252Z,897
2024-05-09T05:13:52.183Z,914
2024-05-09T05:19:11.996Z,928
2024-05-09T05:24:35.789Z,934
2024-05-09T05:29:53.939Z,941
2024-05-09T05:35:12.452Z,941
2024-05-09T05:40:35.387Z,948
2024-05-09T05:45:58.729Z,954
2024-05-09T05:51:16.968Z,956
2024-05-09T05:56:35.404Z,959
2024-05-09T06:01:54.211Z,965
2024-05-09T06:07:12.363Z,976
2024-05-09T06:12:30.707Z,986
2024-05-09T06:17:49.060Z,996
2024-05-09T06:23:07.962Z,992
2024-05-09T06:28:28.145Z,990
2024-05-09T06:33:46.639Z,993
2024-05-09T06:39:05.258Z,992
2024-05-09T06:44:23.605Z,986
2024-05-09T06:49:42.258Z,980
2024-05-09T06:55:00.316Z,975
2024-05-09T07:00:22.631Z,975
2024-05-09T07:05:59.583Z,971
2024-05-09T07:11:17.789Z,968
2024-05-09T07:16:36.088Z,967
2024-05-09T07:21:54.394Z,963
2024-05-09T07:27:12.504Z,954
2024-05-09T07:32:30.839Z,952
2024-05-09T07:37:33.924Z,948
2024-05-09T07:42:52.048Z,940
2024-05-09T07:58:26.324Z,912
2024-05-09T08:03:46.013Z,907
2024-05-09T08:09:07.974Z,896
2024-05-09T08:14:38.853Z,891
2024-05-09T08:19:57.392Z,882
2024-05-09T08:25:15.893Z,869
2024-05-09T08:30:36.430Z,859
2024-05-09T08:35:56.611Z,845
2024-05-09T08:41:14.769Z,841
2024-05-09T08:46:33.105Z,833
2024-05-09T08:51:51.268Z,832
2024-05-09T08:57:09.241Z,819
2024-05-09T09:02:27.490Z,817
2024-05-09T09:07:46.451Z,813
2024-05-09T09:13:05.016Z,808
2024-05-09T09:18:29.661Z,805
2024-05-09T09:23:49.304Z,801
2024-05-09T09:29:07.607Z,796
2024-05-09T09:34:25.993Z,793
2024-05-09T09:39:48.729Z,788
2024-05-09T09:45:07.479Z,783
2024-05-09T09:50:31.312Z,778
2024-05-09T09:55:53.606Z,773
2024-05-09T10:01:12.013Z,771
2024-05-09T10:06:30.728Z,768
2024-05-09T10:11:49.397Z,771
2024-05-09T10:17:18.472Z,766
2024-05-09T10:22:36.908Z,756
2024-05-09T10:27:55.249Z,764
2024-05-09T10:33:14.209Z,760
2024-05-09T10:38:32.821Z,759
2024-05-09T10:43:51.065Z,759
2024-05-09T10:49:09.750Z,761
2024-05-09T10:54:28.289Z,758
2024-05-09T10:59:46.650Z,757
2024-05-09T11:05:05.276Z,755
2024-05-09T11:10:27.145Z,756
2024-05-09T11:15:52.741Z,752
2024-05-09T11:21:11.211Z,749
2024-05-09T11:26:29.695Z,750
2024-05-09T11:31:47.995Z,761
2024-05-09T11:37:06.657Z,775
2024-05-09T11:42:24.761Z,781
2024-05-09T11:47:43.154Z,783
2024-05-09T11:53:01.384Z,778
2024-05-09T11:58:19.598Z,774
2024-05-09T12:03:38.488Z,782
2024-05-09T12:08:57.320Z,780
2024-05-09T12:14:15.683Z,781
2024-05-09T12:19:33.873Z,784
2024-05-09T12:24:52.536Z,790
2024-05-09T12:30:11.526Z,791
2024-05-09T12:35:54.532Z,797
2024-05-09T12:41:12.852Z,798
2024-05-09T12:46:30.871Z,812
2024-05-09T12:51:49.772Z,810
2024-05-09T12:57:08.551Z,822
2024-05-09T13:02:26.784Z,842
2024-05-09T13:07:45.659Z,843
2024-05-09T13:13:04.012Z,830
2024-05-09T13:18:22.878Z,823
2024-05-09T13:23:41.102Z,825
2024-05-09T13:28:59.476Z,830
2024-05-09T13:34:17.834Z,841
2024-05-09T13:39:36.366Z,842
2024-05-09T13:44:54.677Z,835
2024-05-09T13:50:16.742Z,845
2024-05-09T13:55:54.683Z,610
2024-05-09T14:01:12.838Z,566
2024-05-09T14:06:31.404Z,560
2024-05-09T14:11:50.107Z,607
2024-05-09T14:17:08.341Z,814
2024-05-09T14:22:26.579Z,877
2024-05-09T14:27:44.893Z,720
2024-05-09T14:33:03.546Z,737
2024-05-09T14:38:23.337Z,745
2024-05-09T14:43:41.636Z,768
2024-05-09T14:48:59.998Z,772
2024-05-09T14:54:18.565Z,781
2024-05-09T14:59:36.663Z,631
2024-05-09T15:04:55.018Z,633
2024-05-09T15:10:16.640Z,664
2024-05-09T15:15:54.587Z,696
2024-05-09T15:21:13.002Z,703
2024-05-09T15:32:03.958Z,721
2024-05-09T15:37:22.496Z,726
2024-05-09T15:42:42.728Z,784
2024-05-09T15:48:01.546Z,840
2024-05-09T15:53:20.589Z,802
2024-05-09T15:58:38.489Z,796
2024-05-09T16:03:57.120Z,795
2024-05-09T16:09:15.953Z,790
2024-05-09T16:14:35.230Z,789
2024-05-09T16:19:53.751Z,790
2024-05-09T16:25:11.954Z,791
2024-05-09T16:30:33.698Z,791
2024-05-09T16:35:54.940Z,793
2024-05-09T16:41:13.220Z,640
2024-05-09T16:46:31.747Z,591
2024-05-09T16:51:50.185Z,644
2024-05-09T16:57:08.493Z,719
2024-05-09T17:02:27.131Z,746
2024-05-09T17:13:14.462Z,766
2024-05-09T17:18:32.976Z,777
2024-05-09T17:23:51.606Z,797
2024-05-09T17:29:12.274Z,792
2024-05-09T17:34:30.664Z,802
2024-05-09T17:39:49.542Z,803
2024-05-09T17:45:07.938Z,807
2024-05-09T17:50:27.903Z,806
2024-05-09T17:55:56.028Z,809
2024-05-09T18:01:14.416Z,813
2024-05-09T18:06:32.575Z,822
2024-05-09T18:11:52.139Z,825
2024-05-09T18:17:10.727Z,836
2024-05-09T18:22:29.094Z,845
2024-05-09T18:27:47.317Z,863
2024-05-09T18:33:07.135Z,873
2024-05-09T18:38:27.713Z,883
2024-05-09T18:43:48.836Z,894
2024-05-09T18:49:09.243Z,904
2024-05-09T18:54:28.255Z,912
2024-05-09T18:59:30.781Z,912
2024-05-09T19:04:48.974Z,930
2024-05-09T19:10:17.536Z,938
2024-05-09T19:15:51.714Z,950
2024-05-09T19:21:10.016Z,960
2024-05-09T19:26:27.949Z,967
2024-05-09T19:31:46.325Z,976
2024-05-09T19:37:07.780Z,982
2024-05-09T19:42:26.684Z,988
2024-05-09T19:47:45.253Z,1003
2024-05-09T19:53:03.907Z,1014
2024-05-09T19:58:22.340Z,1025
2024-05-09T20:03:40.912Z,1036
2024-05-09T20:08:59.524Z,1064
2024-05-09T20:14:17.623Z,1107
2024-05-09T20:19:36.252Z,1153
2024-05-09T20:24:55.048Z,1197
2024-05-09T20:30:21.636Z,1248
2024-05-09T20:35:52.767Z,1263
2024-05-09T20:41:11.088Z,1268
2024-05-09T20:46:29.613Z,1279
2024-05-09T20:51:47.898Z,1282
2024-05-09T20:57:06.229Z,1276
2024-05-09T21:02:24.934Z,1280
2024-05-09T21:07:43.942Z,1297
2024-05-09T21:13:02.746Z,1308
2024-05-09T21:18:23.930Z,1340
2024-05-09T21:23:42.087Z,1346
2024-05-09T21:29:00.057Z,1357
2024-05-09T21:34:18.258Z,1373
2024-05-09T21:39:36.809Z,1387
2024-05-09T21:44:55.233Z,1390
2024-05-09T21:55:50.351Z,1390
2024-05-09T22:01:08.557Z,1395
2024-05-09T22:06:26.876Z,1405
2024-05-09T22:11:45.502Z,1409
2024-05-09T22:17:09.755Z,1412
2024-05-09T22:22:28.240Z,1407
2024-05-09T22:27:46.494Z,1420
2024-05-09T22:33:04.902Z,1430
2024-05-09T22:38:24.050Z,1441
2024-05-09T22:43:42.579Z,1445
2024-05-09T22:49:01.028Z,1446
2024-05-09T22:54:19.874Z,1454
2024-05-09T22:59:38.212Z,1458
2024-05-09T23:04:56.588Z,1468
2024-05-09T23:10:17.282Z,1486
2024-05-09T23:15:55.768Z,1496
2024-05-09T23:21:14.024Z,1497
2024-05-09T23:26:32.127Z,1500
2024-05-09T23:31:50.047Z,1498
2024-05-09T23:37:08.290Z,1492
2024-05-09T23:42:26.677Z,1488
2024-05-09T23:47:45.245Z,1488
2024-05-09T23:53:04.719Z,1539
2024-05-09T23:58:26.087Z,1555
